Time;durP1;ratioP1;P1;durP2;ratioP2;P2;SDS_P1;SDS_P2;PMS_P1;PMS_P2;Temp;Humidity;BMP_temperature;BMP_pressure;BME280_temperature;BME280_humidity;BME280_pressure;Samples;Min_cycle;Max_cycle;Signal;HPM_P1;HPM_P2
2021/06/07 00:01:31;;;;;;;1.25;0.57;;;;;19.90;102340.00;;;;5088736;28;20225;-75
2021/06/07 00:03:58;;;;;;;1.38;0.70;;;;;19.90;102332.00;;;;5106777;28;20658;-76
2021/06/07 00:06:25;;;;;;;0.47;0.43;;;;;19.90;102339.00;;;;5108985;28;20205;-76
2021/06/07 00:08:53;;;;;;;1.77;0.50;;;;;19.80;102333.00;;;;5108606;28;20193;-76
2021/06/07 00:11:21;;;;;;;0.68;0.68;;;;;19.80;102332.00;;;;5106319;28;21054;-75
2021/06/07 00:13:49;;;;;;;1.35;0.57;;;;;19.80;102330.00;;;;5099894;28;20197;-76
2021/06/07 00:16:16;;;;;;;0.60;0.50;;;;;19.80;102328.00;;;;5111497;28;20200;-75
2021/06/07 00:18:43;;;;;;;0.52;0.50;;;;;19.70;102332.00;;;;5112112;28;20208;-75
2021/06/07 00:21:14;;;;;;;0.52;0.47;;;;;19.70;102331.00;;;;5112208;28;20228;-75
2021/06/07 00:23:41;;;;;;;3.15;0.60;;;;;19.70;102332.00;;;;5112474;28;20202;-76
2021/06/07 00:26:10;;;;;;;0.50;0.40;;;;;19.60;102329.00;;;;5110500;28;20208;-75
2021/06/07 00:28:37;;;;;;;1.35;0.70;;;;;19.60;102325.00;;;;5092472;28;20737;-75
2021/06/07 00:31:06;;;;;;;1.67;0.60;;;;;19.60;102325.00;;;;5091985;28;20226;-75
2021/06/07 00:33:33;;;;;;;0.98;0.70;;;;;19.50;102325.00;;;;5096893;28;20197;-75
2021/06/07 00:36:01;;;;;;;0.77;0.65;;;;;19.50;102332.00;;;;5111693;28;21091;-75
2021/06/07 00:38:28;;;;;;;3.90;0.70;;;;;19.50;102333.00;;;;5112460;28;20201;-75
2021/06/07 00:40:56;;;;;;;0.82;0.50;;;;;19.50;102332.00;;;;5112119;28;20237;-75
2021/06/07 00:43:24;;;;;;;1.63;0.70;;;;;19.40;102330.00;;;;5093567;28;20198;-75
2021/06/07 00:45:51;;;;;;;1.48;0.40;;;;;19.40;102323.00;;;;5101538;28;20227;-75
2021/06/07 00:48:18;;;;;;;0.40;0.40;;;;;19.40;102327.00;;;;5111253;28;20660;-76
2021/06/07 00:50:48;;;;;;;0.68;0.52;;;;;19.30;102316.00;;;;5112670;28;20244;-75
2021/06/07 00:53:17;;;;;;;1.33;0.70;;;;;19.30;102323.00;;;;5112072;28;20219;-76
2021/06/07 00:55:48;;;;;;;0.63;0.45;;;;;19.20;102324.00;;;;5112468;28;20225;-75
2021/06/07 00:58:17;;;;;;;0.73;0.55;;;;;19.20;102322.00;;;;5111752;28;20675;-75
2021/06/07 01:00:45;;;;;;;0.95;0.60;;;;;19.20;102320.00;;;;5112064;28;20699;-75
2021/06/07 01:03:14;;;;;;;1.38;0.52;;;;;19.10;102325.00;;;;5109061;28;20209;-75
2021/06/07 01:05:41;;;;;;;0.95;0.85;;;;;19.10;102319.00;;;;5110461;28;20201;-76
2021/06/07 01:08:08;;;;;;;1.58;0.57;;;;;19.10;102324.00;;;;5094604;28;20198;-76
2021/06/07 01:10:35;;;;;;;0.60;0.60;;;;;19.10;102316.00;;;;5090812;28;20748;-76
2021/06/07 01:13:02;;;;;;;0.45;0.40;;;;;19.00;102316.00;;;;5109744;28;20198;-75
2021/06/07 01:15:29;;;;;;;1.48;0.63;;;;;19.00;102319.00;;;;5110663;28;20208;-75
2021/06/07 01:17:58;;;;;;;1.27;0.70;;;;;18.90;102313.00;;;;5110581;28;20194;-76
2021/06/07 01:20:25;;;;;;;1.88;0.70;;;;;18.90;102315.00;;;;5111372;28;20226;-76
2021/06/07 01:22:54;;;;;;;0.60;0.50;;;;;18.90;102314.00;;;;5110844;28;20202;-75
2021/06/07 01:25:23;;;;;;;2.47;0.63;;;;;18.90;102308.00;;;;5110953;28;20195;-76
2021/06/07 01:27:51;;;;;;;1.10;0.75;;;;;18.90;102314.00;;;;5110225;28;20201;-75
2021/06/07 01:30:20;;;;;;;0.60;0.60;;;;;18.80;102317.00;;;;5110154;28;20197;-75
2021/06/07 01:32:46;;;;;;;0.40;0.38;;;;;18.80;102315.00;;;;5111248;28;20205;-75
2021/06/07 01:35:15;;;;;;;0.70;0.52;;;;;18.80;102314.00;;;;5106916;28;20201;-76
2021/06/07 01:37:43;;;;;;;0.82;0.55;;;;;18.70;102317.00;;;;5110153;28;20206;-76
2021/06/07 01:40:15;;;;;;;1.40;0.70;;;;;18.70;102310.00;;;;5110503;28;20669;-75
2021/06/07 01:42:41;;;;;;;0.98;0.60;;;;;18.70;102310.00;;;;5110708;28;20205;-76
2021/06/07 01:45:11;;;;;;;1.52;0.63;;;;;18.60;102307.00;;;;5111004;28;20197;-76
2021/06/07 01:47:38;;;;;;;2.55;0.57;;;;;18.60;102305.00;;;;5096532;28;20202;-75
2021/06/07 01:50:06;;;;;;;0.60;0.60;;;;;18.60;102311.00;;;;5090429;28;20284;-75
2021/06/07 01:52:34;;;;;;;0.70;0.55;;;;;18.60;102301.00;;;;5089739;28;20210;-76
2021/06/07 01:55:01;;;;;;;0.98;0.60;;;;;18.50;102298.00;;;;5110170;28;20213;-76
2021/06/07 01:57:29;;;;;;;1.30;0.50;;;;;18.50;102299.00;;;;5103833;28;20198;-75
2021/06/07 01:59:56;;;;;;;2.58;0.52;;;;;18.50;102306.00;;;;5110450;28;20206;-75
2021/06/07 02:02:23;;;;;;;0.32;0.32;;;;;18.50;102299.00;;;;5109346;28;20213;-75
2021/06/07 02:04:50;;;;;;;1.25;0.60;;;;;18.40;102303.00;;;;5110381;28;20201;-75
2021/06/07 02:07:16;;;;;;;1.23;0.60;;;;;18.40;102293.00;;;;5099417;28;20217;-77
2021/06/07 02:09:43;;;;;;;0.85;0.50;;;;;18.30;102297.00;;;;5090652;28;20641;-74
2021/06/07 02:12:11;;;;;;;1.00;0.73;;;;;18.30;102297.00;;;;5109902;28;20213;-74
2021/06/07 02:14:39;;;;;;;1.48;0.50;;;;;18.30;102299.00;;;;5109678;28;20201;-74
2021/06/07 02:17:06;;;;;;;1.00;0.47;;;;;18.30;102296.00;;;;5102165;28;20194;-74
2021/06/07 02:19:32;;;;;;;0.98;0.65;;;;;18.20;102291.00;;;;5089638;28;20244;-74
2021/06/07 02:21:59;;;;;;;1.10;0.57;;;;;18.20;102294.00;;;;5089297;28;20229;-75
2021/06/07 02:24:26;;;;;;;2.35;0.60;;;;;18.20;102294.00;;;;5089843;28;20247;-74
2021/06/07 02:26:53;;;;;;;0.60;0.50;;;;;18.20;102299.00;;;;5093432;28;20588;-74
2021/06/07 02:29:19;;;;;;;1.20;0.50;;;;;18.10;102292.00;;;;5109040;28;20193;-74
2021/06/07 02:31:47;;;;;;;0.68;0.60;;;;;18.10;102290.00;;;;5109705;28;20228;-74
2021/06/07 02:34:14;;;;;;;1.92;0.60;;;;;18.10;102291.00;;;;5108839;28;20236;-74
2021/06/07 02:36:43;;;;;;;1.08;0.70;;;;;18.10;102298.00;;;;5108444;28;20250;-74
2021/06/07 02:39:11;;;;;;;2.00;0.60;;;;;18.00;102292.00;;;;5109477;28;20189;-74
2021/06/07 02:41:39;;;;;;;0.60;0.50;;;;;18.00;102297.00;;;;5109005;28;20228;-75
2021/06/07 02:44:07;;;;;;;0.70;0.50;;;;;18.00;102296.00;;;;5109266;28;20214;-75
2021/06/07 02:46:34;;;;;;;0.70;0.60;;;;;18.00;102298.00;;;;5103121;28;20567;-75
2021/06/07 02:49:02;;;;;;;0.88;0.68;;;;;17.90;102301.00;;;;5089942;28;20198;-75
2021/06/07 02:51:30;;;;;;;0.80;0.45;;;;;17.90;102292.00;;;;5089685;28;20210;-74
2021/06/07 02:53:56;;;;;;;1.40;0.70;;;;;17.90;102303.00;;;;5089519;28;20202;-75
2021/06/07 02:56:23;;;;;;;2.10;0.52;;;;;17.90;102302.00;;;;5093217;28;20194;-75
2021/06/07 02:58:50;;;;;;;0.70;0.60;;;;;17.90;102301.00;;;;5108691;28;20200;-75
2021/06/07 03:01:17;;;;;;;0.60;0.60;;;;;17.80;102301.00;;;;5108678;28;20221;-75
2021/06/07 03:03:43;;;;;;;1.00;0.57;;;;;17.80;102301.00;;;;5098773;28;20195;-75
2021/06/07 03:06:11;;;;;;;1.00;0.60;;;;;17.80;102301.00;;;;5089411;28;20202;-75
2021/06/07 03:08:38;;;;;;;1.25;0.60;;;;;17.80;102304.00;;;;5091047;28;20202;-75
2021/06/07 03:11:08;;;;;;;0.50;0.40;;;;;17.70;102305.00;;;;5089298;28;20213;-75
2021/06/07 03:13:36;;;;;;;0.70;0.50;;;;;17.70;102311.00;;;;5088701;28;20675;-76
2021/06/07 03:16:05;;;;;;;0.77;0.50;;;;;17.70;102308.00;;;;5089068;28;20202;-75
2021/06/07 03:18:32;;;;;;;1.23;0.60;;;;;17.70;102314.00;;;;5097063;28;20668;-75
2021/06/07 03:20:58;;;;;;;1.40;0.88;;;;;17.70;102314.00;;;;5109765;28;20233;-75
2021/06/07 03:23:29;;;;;;;0.85;0.45;;;;;17.60;102312.00;;;;5109624;28;20703;-75
2021/06/07 03:25:56;;;;;;;0.77;0.65;;;;;17.60;102309.00;;;;5109365;28;20450;-75
2021/06/07 03:28:23;;;;;;;0.80;0.47;;;;;17.60;102313.00;;;;5107272;28;20198;-75
2021/06/07 03:30:52;;;;;;;0.57;0.55;;;;;17.60;102302.00;;;;5098325;28;20230;-75
2021/06/07 03:33:20;;;;;;;1.10;0.80;;;;;17.60;102310.00;;;;5091328;28;20194;-75
2021/06/07 03:35:48;;;;;;;0.68;0.60;;;;;17.60;102308.00;;;;5109792;28;20205;-75
2021/06/07 03:38:16;;;;;;;1.55;0.80;;;;;17.50;102311.00;;;;5108394;28;20201;-75
2021/06/07 03:40:47;;;;;;;0.60;0.50;;;;;17.50;102311.00;;;;5108764;28;20228;-75
2021/06/07 03:43:16;;;;;;;1.27;0.80;;;;;17.50;102315.00;;;;5108860;28;20201;-75
2021/06/07 03:45:43;;;;;;;0.63;0.63;;;;;17.50;102308.00;;;;5109462;28;20209;-75
2021/06/07 03:48:10;;;;;;;0.65;0.45;;;;;17.50;102311.00;;;;5105188;28;20210;-74
2021/06/07 03:50:38;;;;;;;1.85;0.50;;;;;17.50;102312.00;;;;5088913;28;20202;-75
2021/06/07 03:53:06;;;;;;;0.60;0.50;;;;;17.50;102319.00;;;;5101021;28;20266;-75
2021/06/07 03:55:34;;;;;;;0.75;0.60;;;;;17.40;102311.00;;;;5108970;28;20209;-75
2021/06/07 03:58:03;;;;;;;0.95;0.70;;;;;17.40;102316.00;;;;5106917;28;20189;-75
2021/06/07 04:00:31;;;;;;;1.20;0.52;;;;;17.50;102316.00;;;;5088713;28;20741;-75
2021/06/07 04:02:58;;;;;;;1.38;0.70;;;;;17.50;102315.00;;;;5107260;28;20201;-75
2021/06/07 04:05:26;;;;;;;0.57;0.43;;;;;17.50;102326.00;;;;5088082;28;20244;-75
2021/06/07 04:07:53;;;;;;;0.68;0.57;;;;;17.50;102316.00;;;;5088708;28;20206;-75
2021/06/07 04:10:24;;;;;;;1.15;0.70;;;;;17.50;102312.00;;;;5105300;28;20229;-75
2021/06/07 04:12:52;;;;;;;0.65;0.47;;;;;17.50;102321.00;;;;5108800;28;20216;-75
2021/06/07 04:15:22;;;;;;;0.60;0.60;;;;;17.50;102321.00;;;;5108546;28;20201;-75
2021/06/07 04:17:49;;;;;;;1.58;0.82;;;;;17.50;102317.00;;;;5107583;28;20253;-75
2021/06/07 04:20:19;;;;;;;0.88;0.70;;;;;17.60;102317.00;;;;5088779;28;20694;-74
2021/06/07 04:22:46;;;;;;;0.95;0.70;;;;;17.60;102313.00;;;;5088429;28;20190;-74
2021/06/07 04:25:15;;;;;;;2.00;0.73;;;;;17.60;102315.00;;;;5088185;28;20651;-75
2021/06/07 04:27:42;;;;;;;0.70;0.57;;;;;17.70;102314.00;;;;5106471;28;20543;-74
2021/06/07 04:30:12;;;;;;;1.10;0.70;;;;;17.70;102314.00;;;;5091115;28;20609;-75
2021/06/07 04:32:40;;;;;;;0.82;0.65;;;;;17.70;102310.00;;;;5108205;28;20229;-74
2021/06/07 04:35:10;;;;;;;0.75;0.50;;;;;17.80;102316.00;;;;5106212;28;20205;-75
2021/06/07 04:37:41;;;;;;;1.27;0.70;;;;;17.80;102321.00;;;;5108263;28;20205;-74
2021/06/07 04:40:10;;;;;;;1.45;0.70;;;;;17.90;102316.00;;;;5106272;28;20691;-74
2021/06/07 04:42:37;;;;;;;1.13;0.70;;;;;17.90;102314.00;;;;5107987;28;20205;-74
2021/06/07 04:45:06;;;;;;;1.92;0.70;;;;;18.00;102315.00;;;;5108052;28;20232;-75
2021/06/07 04:47:33;;;;;;;2.05;0.70;;;;;18.10;102315.00;;;;5108055;28;21073;-75
2021/06/07 04:50:01;;;;;;;0.95;0.82;;;;;18.10;102315.00;;;;5094450;28;20683;-74
2021/06/07 04:52:28;;;;;;;0.55;0.50;;;;;18.20;102314.00;;;;5104962;28;20209;-75
2021/06/07 04:54:54;;;;;;;0.80;0.60;;;;;18.20;102319.00;;;;5107270;28;20230;-75
2021/06/07 04:57:21;;;;;;;1.20;0.63;;;;;18.30;102326.00;;;;5094766;28;20209;-75
2021/06/07 04:59:48;;;;;;;0.80;0.60;;;;;18.40;102318.00;;;;5102960;28;20208;-75
2021/06/07 05:02:15;;;;;;;0.80;0.63;;;;;18.50;102319.00;;;;5109482;28;20217;-74
2021/06/07 05:04:42;;;;;;;1.98;0.63;;;;;18.60;102328.00;;;;5079714;28;20223;-75
2021/06/07 05:07:10;;;;;;;1.10;0.60;;;;;18.70;102319.00;;;;5111342;28;20572;-75
2021/06/07 05:09:36;;;;;;;0.82;0.80;;;;;18.70;102332.00;;;;5110379;28;20197;-75
2021/06/07 05:12:05;;;;;;;1.30;0.85;;;;;18.90;102328.00;;;;5109626;28;20201;-75
2021/06/07 05:14:32;;;;;;;4.30;0.90;;;;;18.90;102325.00;;;;5105728;28;20316;-75
2021/06/07 05:16:59;;;;;;;1.63;0.55;;;;;19.00;102329.00;;;;5105907;28;20213;-74
2021/06/07 05:19:25;;;;;;;1.23;0.80;;;;;19.10;102328.00;;;;5110959;28;20201;-75
2021/06/07 05:21:52;;;;;;;1.00;0.50;;;;;19.20;102331.00;;;;5108684;28;20231;-75
2021/06/07 05:24:20;;;;;;;1.00;0.60;;;;;19.30;102324.00;;;;5102393;28;20194;-75
2021/06/07 05:26:47;;;;;;;1.15;0.60;;;;;19.40;102325.00;;;;5095524;28;20201;-75
2021/06/07 05:29:14;;;;;;;0.70;0.55;;;;;19.50;102330.00;;;;5110914;28;20201;-76
2021/06/07 05:31:40;;;;;;;0.77;0.40;;;;;19.60;102327.00;;;;5096168;28;20225;-75
2021/06/07 05:34:07;;;;;;;1.08;0.55;;;;;19.70;102329.00;;;;5095123;28;20734;-75
2021/06/07 05:36:34;;;;;;;0.60;0.40;;;;;19.80;102327.00;;;;5091392;28;20206;-75
2021/06/07 05:39:01;;;;;;;2.30;0.55;;;;;19.90;102330.00;;;;5103779;27;20206;-74
2021/06/07 05:41:29;;;;;;;0.40;0.30;;;;;20.00;102330.00;;;;5089599;28;20312;-76
2021/06/07 05:43:56;;;;;;;1.42;0.50;;;;;20.10;102333.00;;;;5100823;28;20193;-76
2021/06/07 05:46:22;;;;;;;0.60;0.60;;;;;20.20;102325.00;;;;5109225;28;20196;-76
2021/06/07 05:48:49;;;;;;;0.60;0.52;;;;;20.30;102327.00;;;;5110883;28;20205;-75
2021/06/07 05:51:16;;;;;;;0.75;0.50;;;;;20.30;102332.00;;;;5109352;28;20212;-75
2021/06/07 05:53:43;;;;;;;1.90;0.80;;;;;20.40;102329.00;;;;5111827;28;20275;-76
2021/06/07 05:56:10;;;;;;;0.70;0.60;;;;;20.50;102331.00;;;;5111171;28;20198;-76
2021/06/07 05:58:38;;;;;;;1.02;0.90;;;;;20.60;102334.00;;;;5109394;28;20675;-75
2021/06/07 06:01:05;;;;;;;2.88;0.52;;;;;20.70;102332.00;;;;5103259;28;20214;-75
2021/06/07 06:03:32;;;;;;;1.27;0.70;;;;;20.80;102336.00;;;;5105479;28;20597;-75
2021/06/07 06:05:58;;;;;;;2.53;1.10;;;;;20.80;102335.00;;;;5094924;28;20206;-77
2021/06/07 06:08:25;;;;;;;1.85;0.80;;;;;20.90;102334.00;;;;5111294;28;20262;-77
2021/06/07 06:10:52;;;;;;;1.00;0.80;;;;;21.00;102330.00;;;;5107281;28;20210;-77
2021/06/07 06:13:19;;;;;;;1.23;0.80;;;;;21.00;102332.00;;;;5110487;28;20219;-77
2021/06/07 06:15:47;;;;;;;0.88;0.55;;;;;21.10;102338.00;;;;5110838;28;20205;-78
2021/06/07 06:18:13;;;;;;;1.05;0.80;;;;;21.20;102341.00;;;;5110613;28;20202;-77
2021/06/07 06:20:40;;;;;;;1.52;0.98;;;;;21.30;102332.00;;;;5108209;28;20222;-77
2021/06/07 06:23:07;;;;;;;2.03;0.80;;;;;21.40;102340.00;;;;5089998;28;20652;-78
2021/06/07 06:25:34;;;;;;;1.70;0.90;;;;;21.50;102336.00;;;;5097351;28;20238;-77
2021/06/07 06:28:00;;;;;;;2.05;0.80;;;;;21.50;102333.00;;;;5110648;28;20197;-78
2021/06/07 06:30:29;;;;;;;1.35;0.55;;;;;21.60;102339.00;;;;5101436;27;20243;-77
2021/06/07 06:32:59;;;;;;;0.93;0.55;;;;;21.70;102332.00;;;;5122370;27;20193;-78
2021/06/07 06:35:26;;;;;;;1.88;0.80;;;;;21.80;102329.00;;;;5127915;27;20193;-79
2021/06/07 06:37:53;;;;;;;3.17;0.85;;;;;21.90;102332.00;;;;5102266;28;20999;-78
2021/06/07 06:40:22;;;;;;;2.47;0.77;;;;;22.00;102335.00;;;;5098794;28;20672;-78
2021/06/07 06:42:49;;;;;;;2.00;0.63;;;;;22.10;102336.00;;;;5102250;28;20198;-78
2021/06/07 06:45:16;;;;;;;1.80;0.80;;;;;22.20;102338.00;;;;5094757;28;20209;-79
2021/06/07 06:47:44;;;;;;;1.35;0.63;;;;;22.30;102338.00;;;;5099547;28;20202;-78
2021/06/07 06:50:14;;;;;;;2.88;0.70;;;;;22.40;102337.00;;;;5097635;28;20194;-79
2021/06/07 06:52:41;;;;;;;1.77;0.45;;;;;22.50;102335.00;;;;5101720;28;20292;-78
2021/06/07 06:55:09;;;;;;;2.17;0.75;;;;;22.60;102331.00;;;;5094841;28;20252;-78
2021/06/07 06:57:35;;;;;;;1.55;0.40;;;;;22.70;102332.00;;;;5089426;28;20206;-79
2021/06/07 07:00:03;;;;;;;1.67;0.70;;;;;22.80;102334.00;;;;5097324;28;20577;-79
2021/06/07 07:02:32;;;;;;;1.30;0.70;;;;;22.90;102342.00;;;;5100999;28;20226;-79
2021/06/07 07:04:58;;;;;;;0.60;0.47;;;;;23.00;102336.00;;;;5101335;28;20217;-79
2021/06/07 07:07:27;;;;;;;0.95;0.68;;;;;23.10;102332.00;;;;5106974;28;20314;-78
2021/06/07 07:09:53;;;;;;;1.02;0.80;;;;;23.20;102341.00;;;;5104361;28;20201;-78
2021/06/07 07:12:23;;;;;;;0.75;0.47;;;;;23.30;102341.00;;;;5091070;28;20679;-78
2021/06/07 07:14:50;;;;;;;0.50;0.47;;;;;23.30;102342.00;;;;5098221;28;20213;-77
2021/06/07 07:17:17;;;;;;;1.55;0.30;;;;;23.50;102341.00;;;;5106954;28;20248;-78
2021/06/07 07:19:46;;;;;;;0.75;0.32;;;;;23.60;102340.00;;;;5103092;28;20198;-80
2021/06/07 07:22:14;;;;;;;1.20;0.50;;;;;23.60;102339.00;;;;5106800;28;20683;-79
2021/06/07 07:24:44;;;;;;;0.65;0.40;;;;;23.70;102333.00;;;;5107284;28;20197;-79
2021/06/07 07:27:12;;;;;;;1.88;0.57;;;;;23.80;102337.00;;;;5106555;28;20655;-79
2021/06/07 07:29:39;;;;;;;1.25;0.20;;;;;23.90;102341.00;;;;5098533;28;20202;-80
2021/06/07 07:32:07;;;;;;;1.50;0.52;;;;;24.00;102340.00;;;;5099573;28;20221;-78
2021/06/07 07:34:35;;;;;;;2.78;0.60;;;;;24.10;102335.00;;;;5106592;28;20205;-77
2021/06/07 07:37:02;;;;;;;1.95;0.40;;;;;24.20;102343.00;;;;5103428;28;20206;-77
2021/06/07 07:39:29;;;;;;;1.45;0.63;;;;;24.30;102344.00;;;;5095977;28;20197;-78
2021/06/07 07:41:58;;;;;;;0.85;0.32;;;;;24.30;102346.00;;;;5108509;28;20221;-77
2021/06/07 07:44:24;;;;;;;0.47;0.40;;;;;24.40;102342.00;;;;5108624;28;20554;-79
2021/06/07 07:46:52;;;;;;;0.95;0.35;;;;;24.60;102345.00;;;;5107268;28;20201;-78
2021/06/07 07:49:20;;;;;;;1.00;0.65;;;;;24.70;102344.00;;;;5109301;28;20212;-78
2021/06/07 07:51:46;;;;;;;1.30;0.35;;;;;24.80;102339.00;;;;5106346;28;20201;-79
2021/06/07 07:54:14;;;;;;;1.75;0.50;;;;;24.80;102340.00;;;;5109694;28;20228;-77
2021/06/07 07:56:41;;;;;;;1.33;0.60;;;;;25.00;102341.00;;;;5106818;28;20201;-77
2021/06/07 07:59:09;;;;;;;2.90;0.32;;;;;25.00;102345.00;;;;5107660;28;20201;-79
2021/06/07 08:01:36;;;;;;;1.20;0.50;;;;;25.10;102345.00;;;;5108768;28;20225;-78
2021/06/07 08:04:03;;;;;;;1.08;0.50;;;;;25.20;102350.00;;;;5103299;28;20198;-79
2021/06/07 08:06:30;;;;;;;1.33;0.40;;;;;25.30;102342.00;;;;5106381;28;20189;-79
2021/06/07 08:08:57;;;;;;;0.73;0.45;;;;;25.40;102341.00;;;;5109520;28;20193;-79
2021/06/07 08:11:24;;;;;;;1.38;0.50;;;;;25.50;102334.00;;;;5106427;28;20201;-78
2021/06/07 08:13:51;;;;;;;2.63;0.50;;;;;25.60;102337.00;;;;5104095;28;20203;-78
2021/06/07 08:16:19;;;;;;;1.13;0.35;;;;;25.70;102339.00;;;;5108368;28;20266;-80
2021/06/07 08:18:46;;;;;;;0.47;0.28;;;;;25.80;102341.00;;;;5108515;28;20243;-79
2021/06/07 08:21:13;;;;;;;1.70;0.50;;;;;25.90;102335.00;;;;5107332;28;20229;-78
2021/06/07 08:23:40;;;;;;;0.45;0.30;;;;;26.00;102334.00;;;;5105543;28;20197;-78
2021/06/07 08:26:07;;;;;;;2.80;0.50;;;;;26.10;102332.00;;;;5097199;28;20545;-78
2021/06/07 08:28:35;;;;;;;3.33;0.57;;;;;26.10;102330.00;;;;5102059;28;20261;-78
2021/06/07 08:31:01;;;;;;;0.73;0.50;;;;;26.20;102338.00;;;;5096673;28;20566;-79
2021/06/07 08:33:31;;;;;;;1.83;0.90;;;;;26.30;102341.00;;;;5107719;28;20211;-78
2021/06/07 08:35:58;;;;;;;1.27;0.45;;;;;26.40;102338.00;;;;5111993;28;20202;-78
2021/06/07 08:38:25;;;;;;;1.92;0.68;;;;;26.50;102341.00;;;;5110955;28;20706;-78
2021/06/07 08:40:54;;;;;;;1.20;0.60;;;;;26.60;102341.00;;;;5106318;27;20278;-79
2021/06/07 08:43:21;;;;;;;1.10;0.60;;;;;26.70;102338.00;;;;5109751;28;20189;-79
2021/06/07 08:45:48;;;;;;;1.73;0.57;;;;;26.80;102344.00;;;;5110340;28;20197;-78
2021/06/07 08:48:15;;;;;;;2.58;0.80;;;;;26.90;102337.00;;;;5109737;28;20208;-79
2021/06/07 08:50:44;;;;;;;0.88;0.45;;;;;27.00;102336.00;;;;5107965;28;20689;-79
2021/06/07 08:53:10;;;;;;;1.33;0.68;;;;;27.20;102338.00;;;;5107652;28;20193;-77
2021/06/07 08:55:39;;;;;;;1.27;0.65;;;;;27.30;102336.00;;;;5109510;28;20194;-79
2021/06/07 08:58:07;;;;;;;2.90;0.85;;;;;27.30;102334.00;;;;5109591;28;20220;-79
2021/06/07 09:00:37;;;;;;;1.65;0.77;;;;;27.40;102336.00;;;;5111463;27;20608;-78
2021/06/07 09:03:06;;;;;;;1.63;0.80;;;;;27.40;102337.00;;;;5107243;28;20273;-78
2021/06/07 09:05:33;;;;;;;1.52;0.80;;;;;27.50;102328.00;;;;5106525;28;20244;-78
2021/06/07 09:08:04;;;;;;;3.25;0.85;;;;;27.50;102331.00;;;;5102755;28;20675;-79
2021/06/07 09:10:33;;;;;;;0.65;0.65;;;;;27.70;102335.00;;;;5112247;28;20194;-78
2021/06/07 09:13:04;;;;;;;1.70;0.80;;;;;27.70;102331.00;;;;5110326;28;20189;-78
2021/06/07 09:15:34;;;;;;;1.10;1.00;;;;;27.80;102330.00;;;;5099227;28;20194;-79
2021/06/07 09:18:03;;;;;;;2.55;1.23;;;;;27.90;102327.00;;;;5103156;28;20213;-79
2021/06/07 09:20:31;;;;;;;1.02;0.93;;;;;28.00;102331.00;;;;5106726;28;20198;-76
2021/06/07 09:23:01;;;;;;;2.08;0.80;;;;;28.10;102331.00;;;;5104547;28;20226;-76
2021/06/07 09:25:31;;;;;;;1.20;1.00;;;;;28.10;102330.00;;;;5109838;28;21062;-77
2021/06/07 09:28:09;;;;;;;1.05;0.88;;;;;28.10;102328.00;;;;5118236;28;20206;-78
2021/06/07 09:30:38;;;;;;;1.13;0.90;;;;;28.20;102332.00;;;;5115572;28;20209;-78
2021/06/07 09:33:34;;;;;;;1.35;0.90;;;;;28.10;102331.00;;;;5117703;28;20716;-79
2021/06/07 09:36:20;;;;;;;4.00;0.93;;;;;28.20;102333.00;;;;5105133;28;20197;-80
2021/06/07 09:39:17;;;;;;;1.27;0.80;;;;;28.20;102335.00;;;;5111220;28;20216;-80
2021/06/07 09:41:52;;;;;;;2.75;1.25;;;;;28.30;102331.00;;;;5103107;28;20225;-79
2021/06/07 09:44:25;;;;;;;1.75;0.90;;;;;28.50;102336.00;;;;5110998;28;20201;-81
2021/06/07 09:47:05;;;;;;;1.23;1.00;;;;;28.60;102335.00;;;;5101742;28;20195;-80
2021/06/07 09:49:39;;;;;;;1.63;1.00;;;;;28.60;102345.00;;;;5109196;28;20193;-77
2021/06/07 09:52:09;;;;;;;1.88;1.20;;;;;28.70;102337.00;;;;5108701;28;20198;-77
2021/06/07 09:54:38;;;;;;;2.10;1.05;;;;;28.70;102341.00;;;;5112818;28;20195;-78
2021/06/07 09:57:05;;;;;;;1.98;1.08;;;;;28.80;102331.00;;;;5108564;28;20198;-77
2021/06/07 09:59:34;;;;;;;1.70;1.30;;;;;28.80;102334.00;;;;5111640;28;20197;-77
2021/06/07 10:02:02;;;;;;;1.20;1.10;;;;;28.90;102338.00;;;;5109415;28;20753;-76
2021/06/07 10:04:53;;;;;;;1.95;1.40;;;;;28.80;102337.00;;;;5106529;28;20201;-77
2021/06/07 10:07:21;;;;;;;1.25;0.95;;;;;28.90;102340.00;;;;5102664;28;20785;-76
2021/06/07 10:10:19;;;;;;;3.55;1.17;;;;;28.90;102332.00;;;;5109786;28;20243;-77
2021/06/07 10:12:47;;;;;;;2.65;1.17;;;;;29.00;102339.00;;;;5107794;28;20197;-76
2021/06/07 10:15:29;;;;;;;1.38;0.82;;;;;29.10;102334.00;;;;5111145;28;20594;-77
2021/06/07 10:17:56;;;;;;;1.88;0.85;;;;;29.20;102333.00;;;;5105268;28;20196;-77
2021/06/07 10:23:07;;;;;;;1.35;0.80;;;;;29.30;102339.00;;;;5113223;28;20291;-77
2021/06/07 10:25:35;;;;;;;0.88;0.88;;;;;29.40;102336.00;;;;5116782;27;20197;-76
2021/06/07 10:28:02;;;;;;;1.23;0.90;;;;;29.40;102339.00;;;;5106062;28;20259;-78
2021/06/07 10:30:29;;;;;;;4.95;1.10;;;;;29.40;102334.00;;;;5112160;28;20209;-76
2021/06/07 10:32:56;;;;;;;2.28;1.10;;;;;29.40;102327.00;;;;5068863;28;20648;-76
2021/06/07 10:35:33;;;;;;;2.50;0.82;;;;;29.30;102329.00;;;;5061800;28;20194;-76
2021/06/07 10:38:08;;;;;;;1.90;0.98;;;;;29.50;102333.00;;;;5067394;28;20281;-76
2021/06/07 10:40:38;;;;;;;2.80;1.00;;;;;29.50;102332.00;;;;5068517;28;20602;-77
2021/06/07 10:43:06;;;;;;;0.90;0.65;;;;;29.60;102328.00;;;;5066166;28;20245;-77
2021/06/07 10:45:36;;;;;;;1.70;0.98;;;;;29.60;102330.00;;;;5063733;28;20210;-77
2021/06/07 10:48:05;;;;;;;1.40;1.20;;;;;29.60;102324.00;;;;5065638;28;20214;-78
2021/06/07 10:50:34;;;;;;;0.85;0.70;;;;;29.60;102327.00;;;;5064513;28;20653;-78
2021/06/07 10:53:03;;;;;;;3.05;1.30;;;;;29.60;102327.00;;;;5069092;28;20202;-78
2021/06/07 10:55:33;;;;;;;1.92;1.10;;;;;29.60;102320.00;;;;5069759;28;20199;-79
2021/06/07 10:58:04;;;;;;;2.05;1.02;;;;;29.60;102328.00;;;;5066755;28;20202;-79
2021/06/07 11:00:38;;;;;;;1.20;1.10;;;;;29.50;102325.00;;;;5067401;28;20195;-77
2021/06/07 11:03:16;;;;;;;1.42;1.00;;;;;29.50;102325.00;;;;5066294;28;20577;-76
2021/06/07 11:05:45;;;;;;;1.00;0.80;;;;;29.60;102315.00;;;;5063124;28;20747;-76
2021/06/07 11:08:17;;;;;;;1.45;0.80;;;;;29.60;102327.00;;;;5056198;28;20700;-77
2021/06/07 11:10:44;;;;;;;1.65;1.13;;;;;29.60;102315.00;;;;5067967;28;20249;-77
2021/06/07 11:13:14;;;;;;;1.42;1.02;;;;;29.60;102310.00;;;;5058882;28;20203;-77
2021/06/07 11:15:51;;;;;;;2.55;1.20;;;;;29.60;102310.00;;;;5068491;28;20203;-77
2021/06/07 11:18:24;;;;;;;3.10;0.82;;;;;29.50;102309.00;;;;5070393;28;20198;-77
2021/06/07 11:20:52;;;;;;;2.20;1.15;;;;;29.60;102305.00;;;;5070017;28;20656;-77
2021/06/07 11:23:21;;;;;;;1.50;1.20;;;;;29.60;102315.00;;;;5066363;28;20203;-77
2021/06/07 11:25:51;;;;;;;3.78;1.50;;;;;29.60;102314.00;;;;5065578;28;20201;-77
2021/06/07 11:28:48;;;;;;;1.08;0.88;;;;;29.50;102313.00;;;;5067816;28;20195;-78
2021/06/07 11:31:53;;;;;;;0.85;0.85;;;;;29.50;102314.00;;;;5082656;28;20724;-77
2021/06/07 11:34:35;;;;;;;1.33;1.23;;;;;29.60;102308.00;;;;5100386;28;20189;-80
2021/06/07 11:37:02;;;;;;;1.95;1.10;;;;;29.70;102321.00;;;;5103592;28;20252;-76
2021/06/07 11:39:31;;;;;;;1.20;1.10;;;;;29.60;102316.00;;;;5109142;28;20663;-74
2021/06/07 11:42:06;;;;;;;1.77;0.70;;;;;29.50;102313.00;;;;5106107;28;20760;-78
2021/06/07 11:44:56;;;;;;;1.83;0.80;;;;;29.30;102317.00;;;;5109531;28;20266;-79
2021/06/07 11:47:53;;;;;;;1.00;0.88;;;;;29.30;102311.00;;;;5117444;27;20197;-79
2021/06/07 11:50:31;;;;;;;1.25;1.15;;;;;29.30;102303.00;;;;5118774;28;20266;-79
2021/06/07 11:53:12;;;;;;;3.13;1.33;;;;;29.30;102319.00;;;;5113020;28;20220;-79
2021/06/07 11:55:39;;;;;;;2.67;1.17;;;;;29.40;102309.00;;;;5095095;28;20197;-77
2021/06/07 11:58:15;;;;;;;2.17;1.63;;;;;29.40;102316.00;;;;5106157;28;20190;-77
2021/06/07 12:00:45;;;;;;;1.30;1.20;;;;;29.40;102292.00;;;;5097168;28;20194;-78
2021/06/07 12:03:14;;;;;;;1.17;0.98;;;;;29.50;102301.00;;;;5105068;28;20221;-77
2021/06/07 12:05:41;;;;;;;1.83;1.08;;;;;29.50;102303.00;;;;5106982;28;20209;-77
2021/06/07 12:08:10;;;;;;;1.42;1.08;;;;;29.50;102305.00;;;;5108059;28;20570;-78
2021/06/07 12:10:38;;;;;;;2.25;1.58;;;;;29.50;102293.00;;;;5099794;28;20202;-80
2021/06/07 12:13:15;;;;;;;1.98;0.90;;;;;29.40;102283.00;;;;5119083;28;20193;-77
2021/06/07 12:15:43;;;;;;;1.42;0.70;;;;;29.50;102295.00;;;;5103939;28;20201;-78
2021/06/07 12:18:10;;;;;;;3.42;1.40;;;;;29.50;102294.00;;;;5111136;28;20253;-77
2021/06/07 12:20:38;;;;;;;1.25;1.10;;;;;29.50;102288.00;;;;5107203;28;20199;-76